sensor_id;sensor_type;location;lat;lon;timestamp;temperature;humidity
7447;DHT22;3765;47.962;7.952;2022-12-17T00:01:26;-3273.30;77.30
7447;DHT22;3765;47.962;7.952;2022-12-17T00:04:12;-3273.30;77.30
7447;DHT22;3765;47.962;7.952;2022-12-17T00:06:57;-3273.30;77.30
7447;DHT22;3765;47.962;7.952;2022-12-17T00:09:43;-3273.30;77.30
7447;DHT22;3765;47.962;7.952;2022-12-17T00:12:28;-3273.30;77.30
7447;DHT22;3765;47.962;7.952;2022-12-17T00:15:14;-3273.30;77.30
7447;DHT22;3765;47.962;7.952;2022-12-17T00:18:04;-3273.30;77.20
7447;DHT22;3765;47.962;7.952;2022-12-17T00:20:53;-3273.30;77.30
7447;DHT22;3765;47.962;7.952;2022-12-17T00:23:39;-3273.20;77.20
7447;DHT22;3765;47.962;7.952;2022-12-17T00:26:25;-3273.30;77.40
7447;DHT22;3765;47.962;7.952;2022-12-17T00:29:11;-3273.30;77.20
7447;DHT22;3765;47.962;7.952;2022-12-17T00:31:56;-3273.30;77.20
7447;DHT22;3765;47.962;7.952;2022-12-17T00:34:44;-3273.30;77.30
7447;DHT22;3765;47.962;7.952;2022-12-17T00:37:29;-3273.30;77.10
7447;DHT22;3765;47.962;7.952;2022-12-17T00:40:15;-3273.10;77.00
7447;DHT22;3765;47.962;7.952;2022-12-17T00:43:00;-3273.00;76.90
7447;DHT22;3765;47.962;7.952;2022-12-17T00:45:47;-3272.80;77.00
7447;DHT22;3765;47.962;7.952;2022-12-17T00:48:34;-3272.90;77.10
7447;DHT22;3765;47.962;7.952;2022-12-17T00:51:23;-3272.80;77.00
7447;DHT22;3765;47.962;7.952;2022-12-17T00:54:09;-3272.80;76.80
7447;DHT22;3765;47.962;7.952;2022-12-17T00:56:54;-3272.70;76.90
7447;DHT22;3765;47.962;7.952;2022-12-17T00:59:54;-3272.70;76.90
7447;DHT22;3765;47.962;7.952;2022-12-17T01:02:42;-3272.70;76.70
7447;DHT22;3765;47.962;7.952;2022-12-17T01:05:27;-3272.60;76.70
7447;DHT22;3765;47.962;7.952;2022-12-17T01:08:14;-3272.50;76.80
7447;DHT22;3765;47.962;7.952;2022-12-17T01:11:00;-3272.60;76.80
7447;DHT22;3765;47.962;7.952;2022-12-17T01:13:46;-3272.50;76.80
7447;DHT22;3765;47.962;7.952;2022-12-17T01:16:33;-3272.50;76.70
7447;DHT22;3765;47.962;7.952;2022-12-17T01:19:21;-3272.50;76.80
7447;DHT22;3765;47.962;7.952;2022-12-17T01:22:07;-3272.40;76.70
7447;DHT22;3765;47.962;7.952;2022-12-17T01:24:56;-3272.40;76.70
7447;DHT22;3765;47.962;7.952;2022-12-17T01:27:42;-3272.40;76.70
7447;DHT22;3765;47.962;7.952;2022-12-17T01:30:27;-3272.50;76.70
7447;DHT22;3765;47.962;7.952;2022-12-17T01:33:27;-3272.50;76.60
7447;DHT22;3765;47.962;7.952;2022-12-17T01:36:13;-3272.50;76.60
7447;DHT22;3765;47.962;7.952;2022-12-17T01:38:58;-3272.50;76.60
7447;DHT22;3765;47.962;7.952;2022-12-17T01:41:45;-3272.50;76.60
7447;DHT22;3765;47.962;7.952;2022-12-17T01:44:52;-3272.30;76.40
7447;DHT22;3765;47.962;7.952;2022-12-17T01:47:41;-3272.40;76.60
7447;DHT22;3765;47.962;7.952;2022-12-17T01:50:30;-3272.40;76.50
7447;DHT22;3765;47.962;7.952;2022-12-17T01:53:20;-3272.50;76.60
7447;DHT22;3765;47.962;7.952;2022-12-17T01:56:08;-3272.50;76.50
7447;DHT22;3765;47.962;7.952;2022-12-17T01:58:56;-3272.40;76.50
7447;DHT22;3765;47.962;7.952;2022-12-17T02:01:42;-3272.40;76.40
7447;DHT22;3765;47.962;7.952;2022-12-17T02:04:27;-3272.30;76.40
7447;DHT22;3765;47.962;7.952;2022-12-17T02:07:27;-3272.30;76.40
7447;DHT22;3765;47.962;7.952;2022-12-17T02:10:22;-3272.30;76.30
7447;DHT22;3765;47.962;7.952;2022-12-17T02:13:13;-3272.30;76.30
7447;DHT22;3765;47.962;7.952;2022-12-17T02:16:07;-3272.30;76.30
7447;DHT22;3765;47.962;7.952;2022-12-17T02:18:57;-3272.30;76.20
7447;DHT22;3765;47.962;7.952;2022-12-17T02:21:45;-3272.20;76.20
7447;DHT22;3765;47.962;7.952;2022-12-17T02:24:44;-3272.20;76.10
7447;DHT22;3765;47.962;7.952;2022-12-17T02:27:33;-3272.10;76.10
7447;DHT22;3765;47.962;7.952;2022-12-17T02:30:19;-3272.10;76.00
7447;DHT22;3765;47.962;7.952;2022-12-17T02:33:04;-3272.00;76.10
7447;DHT22;3765;47.962;7.952;2022-12-17T02:35:54;-3272.00;75.90
7447;DHT22;3765;47.962;7.952;2022-12-17T02:38:42;-3272.00;76.10
7447;DHT22;3765;47.962;7.952;2022-12-17T02:41:39;-3271.90;75.90
7447;DHT22;3765;47.962;7.952;2022-12-17T02:44:27;-3271.80;76.10
7447;DHT22;3765;47.962;7.952;2022-12-17T02:47:14;-3271.80;76.20
7447;DHT22;3765;47.962;7.952;2022-12-17T02:50:00;-3271.90;76.20
7447;DHT22;3765;47.962;7.952;2022-12-17T02:52:47;-3271.90;76.10
7447;DHT22;3765;47.962;7.952;2022-12-17T02:55:33;-3271.90;76.20
7447;DHT22;3765;47.962;7.952;2022-12-17T02:58:19;-3271.90;76.00
7447;DHT22;3765;47.962;7.952;2022-12-17T03:01:07;-3271.90;76.10
7447;DHT22;3765;47.962;7.952;2022-12-17T03:03:52;-3271.80;76.10
7447;DHT22;3765;47.962;7.952;2022-12-17T03:06:38;-3271.80;76.00
7447;DHT22;3765;47.962;7.952;2022-12-17T03:09:24;-3271.70;76.20
7447;DHT22;3765;47.962;7.952;2022-12-17T03:12:11;-3271.70;76.30
7447;DHT22;3765;47.962;7.952;2022-12-17T03:14:57;-3271.70;76.30
7447;DHT22;3765;47.962;7.952;2022-12-17T03:17:44;-3271.80;76.40
7447;DHT22;3765;47.962;7.952;2022-12-17T03:20:30;-3271.90;76.30
7447;DHT22;3765;47.962;7.952;2022-12-17T03:23:16;-3271.80;76.30
7447;DHT22;3765;47.962;7.952;2022-12-17T03:26:07;-3271.80;76.40
7447;DHT22;3765;47.962;7.952;2022-12-17T03:28:53;-3271.90;76.40
7447;DHT22;3765;47.962;7.952;2022-12-17T03:31:38;-3271.90;76.40
7447;DHT22;3765;47.962;7.952;2022-12-17T03:34:25;-3271.90;76.30
7447;DHT22;3765;47.962;7.952;2022-12-17T03:37:11;-3271.80;76.20
7447;DHT22;3765;47.962;7.952;2022-12-17T03:39:56;-3271.80;76.20
7447;DHT22;3765;47.962;7.952;2022-12-17T03:42:44;-3271.70;76.10
7447;DHT22;3765;47.962;7.952;2022-12-17T03:45:30;-3271.60;76.10
7447;DHT22;3765;47.962;7.952;2022-12-17T03:48:16;-3271.60;76.20
7447;DHT22;3765;47.962;7.952;2022-12-17T03:51:02;-3271.60;76.20
7447;DHT22;3765;47.962;7.952;2022-12-17T03:53:48;-3271.60;76.20
7447;DHT22;3765;47.962;7.952;2022-12-17T03:56:34;-3271.50;76.20
7447;DHT22;3765;47.962;7.952;2022-12-17T03:59:19;-3271.40;76.10
7447;DHT22;3765;47.962;7.952;2022-12-17T04:02:05;-3271.40;76.20
7447;DHT22;3765;47.962;7.952;2022-12-17T04:04:51;-3271.50;76.20
7447;DHT22;3765;47.962;7.952;2022-12-17T04:07:45;-3271.50;76.20
7447;DHT22;3765;47.962;7.952;2022-12-17T04:10:31;-3271.60;76.30
7447;DHT22;3765;47.962;7.952;2022-12-17T04:13:16;-3271.60;76.20
7447;DHT22;3765;47.962;7.952;2022-12-17T04:16:06;-3271.60;76.20
7447;DHT22;3765;47.962;7.952;2022-12-17T04:18:52;-3271.70;76.20
7447;DHT22;3765;47.962;7.952;2022-12-17T04:21:38;-3271.70;76.20
7447;DHT22;3765;47.962;7.952;2022-12-17T04:24:31;-3271.70;76.10
7447;DHT22;3765;47.962;7.952;2022-12-17T04:27:15;-3271.70;76.10
7447;DHT22;3765;47.962;7.952;2022-12-17T04:30:15;-3271.50;76.00
7447;DHT22;3765;47.962;7.952;2022-12-17T04:33:01;-3271.40;75.90
7447;DHT22;3765;47.962;7.952;2022-12-17T04:35:46;-3271.30;75.90
7447;DHT22;3765;47.962;7.952;2022-12-17T04:38:32;-3271.20;76.00
7447;DHT22;3765;47.962;7.952;2022-12-17T04:41:19;-3271.30;76.10
7447;DHT22;3765;47.962;7.952;2022-12-17T04:44:04;-3271.40;76.20
7447;DHT22;3765;47.962;7.952;2022-12-17T04:46:50;-3271.40;76.10
7447;DHT22;3765;47.962;7.952;2022-12-17T04:49:36;-3271.30;75.90
7447;DHT22;3765;47.962;7.952;2022-12-17T04:52:21;-3271.20;76.00
7447;DHT22;3765;47.962;7.952;2022-12-17T04:55:07;-3271.30;76.00
7447;DHT22;3765;47.962;7.952;2022-12-17T04:57:59;-3271.30;76.10
7447;DHT22;3765;47.962;7.952;2022-12-17T05:00:45;-3271.30;76.00
7447;DHT22;3765;47.962;7.952;2022-12-17T05:03:36;-3271.40;76.10
7447;DHT22;3765;47.962;7.952;2022-12-17T05:06:22;-3271.30;76.00
7447;DHT22;3765;47.962;7.952;2022-12-17T05:09:08;-3271.40;76.00
7447;DHT22;3765;47.962;7.952;2022-12-17T05:11:53;-3271.40;75.90
7447;DHT22;3765;47.962;7.952;2022-12-17T05:14:46;-3271.30;75.80
7447;DHT22;3765;47.962;7.952;2022-12-17T05:17:32;-3271.30;75.90
7447;DHT22;3765;47.962;7.952;2022-12-17T05:20:17;-3271.30;76.00
7447;DHT22;3765;47.962;7.952;2022-12-17T05:23:06;-3271.30;76.00
7447;DHT22;3765;47.962;7.952;2022-12-17T05:25:59;-3271.30;75.80
7447;DHT22;3765;47.962;7.952;2022-12-17T05:28:47;-3271.30;76.00
7447;DHT22;3765;47.962;7.952;2022-12-17T05:31:49;-3271.30;75.80
7447;DHT22;3765;47.962;7.952;2022-12-17T05:34:35;-3271.20;76.00
7447;DHT22;3765;47.962;7.952;2022-12-17T05:37:22;-3271.20;76.00
7447;DHT22;3765;47.962;7.952;2022-12-17T05:40:09;-3271.30;76.00
7447;DHT22;3765;47.962;7.952;2022-12-17T05:42:55;-3271.30;75.90
7447;DHT22;3765;47.962;7.952;2022-12-17T05:45:43;-3271.20;75.70
7447;DHT22;3765;47.962;7.952;2022-12-17T05:48:27;-3271.10;75.80
7447;DHT22;3765;47.962;7.952;2022-12-17T05:51:24;-3271.10;75.80
7447;DHT22;3765;47.962;7.952;2022-12-17T05:54:10;-3271.10;75.90
7447;DHT22;3765;47.962;7.952;2022-12-17T05:56:55;-3271.20;76.00
7447;DHT22;3765;47.962;7.952;2022-12-17T05:59:41;-3271.20;75.80
7447;DHT22;3765;47.962;7.952;2022-12-17T06:02:26;-3271.00;75.70
7447;DHT22;3765;47.962;7.952;2022-12-17T06:05:13;-3271.00;75.90
7447;DHT22;3765;47.962;7.952;2022-12-17T06:08:02;-3271.10;75.90
7447;DHT22;3765;47.962;7.952;2022-12-17T06:10:48;-3271.10;76.00
7447;DHT22;3765;47.962;7.952;2022-12-17T06:13:33;-3271.10;76.00
7447;DHT22;3765;47.962;7.952;2022-12-17T06:16:19;-3271.10;75.80
7447;DHT22;3765;47.962;7.952;2022-12-17T06:19:05;-3271.10;75.80
7447;DHT22;3765;47.962;7.952;2022-12-17T06:21:52;-3271.10;75.80
7447;DHT22;3765;47.962;7.952;2022-12-17T06:24:37;-3271.00;75.80
7447;DHT22;3765;47.962;7.952;2022-12-17T06:27:23;-3271.10;75.80
7447;DHT22;3765;47.962;7.952;2022-12-17T06:30:09;-3271.10;75.70
7447;DHT22;3765;47.962;7.952;2022-12-17T06:33:03;-3271.10;75.70
7447;DHT22;3765;47.962;7.952;2022-12-17T06:35:50;-3271.10;75.80
7447;DHT22;3765;47.962;7.952;2022-12-17T06:38:34;-3271.00;75.70
7447;DHT22;3765;47.962;7.952;2022-12-17T06:41:19;-3271.00;75.90
7447;DHT22;3765;47.962;7.952;2022-12-17T06:44:05;-3271.00;75.90
7447;DHT22;3765;47.962;7.952;2022-12-17T06:46:51;-3271.00;75.90
7447;DHT22;3765;47.962;7.952;2022-12-17T06:49:37;-3271.10;75.80
7447;DHT22;3765;47.962;7.952;2022-12-17T06:52:27;-3271.00;75.70
7447;DHT22;3765;47.962;7.952;2022-12-17T06:55:14;-3271.00;75.70
7447;DHT22;3765;47.962;7.952;2022-12-17T06:58:00;-3271.00;75.70
7447;DHT22;3765;47.962;7.952;2022-12-17T07:00:45;-3270.90;75.60
7447;DHT22;3765;47.962;7.952;2022-12-17T07:03:31;-3270.90;75.70
7447;DHT22;3765;47.962;7.952;2022-12-17T07:06:17;-3270.90;75.70
7447;DHT22;3765;47.962;7.952;2022-12-17T07:09:03;-3270.80;75.60
7447;DHT22;3765;47.962;7.952;2022-12-17T07:11:50;-3270.80;75.40
7447;DHT22;3765;47.962;7.952;2022-12-17T07:14:35;-3270.70;75.50
7447;DHT22;3765;47.962;7.952;2022-12-17T07:17:22;-3270.80;75.70
7447;DHT22;3765;47.962;7.952;2022-12-17T07:20:10;-3270.80;75.60
7447;DHT22;3765;47.962;7.952;2022-12-17T07:22:56;-3270.80;75.60
7447;DHT22;3765;47.962;7.952;2022-12-17T07:25:42;-3271.00;75.70
7447;DHT22;3765;47.962;7.952;2022-12-17T07:28:28;-3271.00;75.50
7447;DHT22;3765;47.962;7.952;2022-12-17T07:31:14;-3271.00;75.60
7447;DHT22;3765;47.962;7.952;2022-12-17T07:34:00;-3271.00;75.50
7447;DHT22;3765;47.962;7.952;2022-12-17T07:36:45;-3271.00;75.50
7447;DHT22;3765;47.962;7.952;2022-12-17T07:39:30;-3271.00;75.60
7447;DHT22;3765;47.962;7.952;2022-12-17T07:42:15;-3271.10;75.50
7447;DHT22;3765;47.962;7.952;2022-12-17T07:45:03;-3271.10;75.50
7447;DHT22;3765;47.962;7.952;2022-12-17T07:47:51;-3271.10;75.40
7447;DHT22;3765;47.962;7.952;2022-12-17T07:50:37;-3271.10;75.40
7447;DHT22;3765;47.962;7.952;2022-12-17T07:53:22;-3271.20;75.40
7447;DHT22;3765;47.962;7.952;2022-12-17T07:56:08;-3271.20;75.40
7447;DHT22;3765;47.962;7.952;2022-12-17T07:58:53;-3271.30;75.40
7447;DHT22;3765;47.962;7.952;2022-12-17T08:01:39;-3271.30;75.30
7447;DHT22;3765;47.962;7.952;2022-12-17T08:04:25;-3271.30;75.30
7447;DHT22;3765;47.962;7.952;2022-12-17T08:07:10;-3271.30;75.20
7447;DHT22;3765;47.962;7.952;2022-12-17T08:09:56;-3271.30;75.20
7447;DHT22;3765;47.962;7.952;2022-12-17T08:12:41;-3271.30;75.10
7447;DHT22;3765;47.962;7.952;2022-12-17T08:15:40;-3271.20;75.00
7447;DHT22;3765;47.962;7.952;2022-12-17T08:18:27;-3271.10;74.80
7447;DHT22;3765;47.962;7.952;2022-12-17T08:21:13;-3271.00;74.90
7447;DHT22;3765;47.962;7.952;2022-12-17T08:23:59;-3271.00;74.90
7447;DHT22;3765;47.962;7.952;2022-12-17T08:26:44;-3271.00;74.90
7447;DHT22;3765;47.962;7.952;2022-12-17T08:29:32;-3271.20;75.00
7447;DHT22;3765;47.962;7.952;2022-12-17T08:32:18;-3271.30;75.00
7447;DHT22;3765;47.962;7.952;2022-12-17T08:35:06;-3271.30;74.90
7447;DHT22;3765;47.962;7.952;2022-12-17T08:37:52;-3271.50;75.10
7447;DHT22;3765;47.962;7.952;2022-12-17T08:40:38;-3271.70;75.20
7447;DHT22;3765;47.962;7.952;2022-12-17T08:43:23;-3271.80;75.10
7447;DHT22;3765;47.962;7.952;2022-12-17T08:46:08;-3271.90;75.20
7447;DHT22;3765;47.962;7.952;2022-12-17T08:48:54;-3272.00;75.30
7447;DHT22;3765;47.962;7.952;2022-12-17T08:51:41;-3272.10;75.40
7447;DHT22;3765;47.962;7.952;2022-12-17T08:54:27;-3272.20;75.30
7447;DHT22;3765;47.962;7.952;2022-12-17T08:57:12;-3272.30;75.30
7447;DHT22;3765;47.962;7.952;2022-12-17T08:59:58;-3272.40;75.20
7447;DHT22;3765;47.962;7.952;2022-12-17T09:02:44;-3272.60;75.30
7447;DHT22;3765;47.962;7.952;2022-12-17T09:05:30;-3272.80;75.30
7447;DHT22;3765;47.962;7.952;2022-12-17T09:08:17;-3273.00;75.10
7447;DHT22;3765;47.962;7.952;2022-12-17T09:11:02;-3273.00;75.10
7447;DHT22;3765;47.962;7.952;2022-12-17T09:13:48;-3273.20;75.10
7447;DHT22;3765;47.962;7.952;2022-12-17T09:16:33;-3273.30;75.00
7447;DHT22;3765;47.962;7.952;2022-12-17T09:19:27;-3273.40;75.10
7447;DHT22;3765;47.962;7.952;2022-12-17T09:22:13;-3273.60;75.10
7447;DHT22;3765;47.962;7.952;2022-12-17T09:25:00;-3273.60;74.80
7447;DHT22;3765;47.962;7.952;2022-12-17T09:27:46;-3273.60;75.00
7447;DHT22;3765;47.962;7.952;2022-12-17T09:30:31;-3273.80;75.10
7447;DHT22;3765;47.962;7.952;2022-12-17T09:33:17;-3273.90;75.00
7447;DHT22;3765;47.962;7.952;2022-12-17T09:36:04;-3274.10;74.90
7447;DHT22;3765;47.962;7.952;2022-12-17T09:38:50;-3274.20;74.90
7447;DHT22;3765;47.962;7.952;2022-12-17T09:41:42;-3274.30;74.90
7447;DHT22;3765;47.962;7.952;2022-12-17T09:44:38;-3274.40;74.90
7447;DHT22;3765;47.962;7.952;2022-12-17T09:47:34;-3274.40;75.00
7447;DHT22;3765;47.962;7.952;2022-12-17T09:50:24;-3274.50;74.80
7447;DHT22;3765;47.962;7.952;2022-12-17T09:53:19;-3274.60;75.10
7447;DHT22;3765;47.962;7.952;2022-12-17T09:56:08;-3274.70;75.00
7447;DHT22;3765;47.962;7.952;2022-12-17T09:58:57;-3274.80;74.90
7447;DHT22;3765;47.962;7.952;2022-12-17T10:01:43;-3274.90;74.80
7447;DHT22;3765;47.962;7.952;2022-12-17T10:04:32;-3274.80;74.70
7447;DHT22;3765;47.962;7.952;2022-12-17T10:07:21;-3274.50;74.20
7447;DHT22;3765;47.962;7.952;2022-12-17T10:10:16;-3274.50;75.20
7447;DHT22;3765;47.962;7.952;2022-12-17T10:13:09;-3274.70;75.10
7447;DHT22;3765;47.962;7.952;2022-12-17T10:15:56;-3274.60;74.60
7447;DHT22;3765;47.962;7.952;2022-12-17T10:18:42;-3274.70;75.20
7447;DHT22;3765;47.962;7.952;2022-12-17T10:21:29;-3274.60;74.50
7447;DHT22;3765;47.962;7.952;2022-12-17T10:24:15;-3274.50;74.90
7447;DHT22;3765;47.962;7.952;2022-12-17T10:27:08;-3274.00;74.70
7447;DHT22;3765;47.962;7.952;2022-12-17T10:29:54;-3274.10;75.50
7447;DHT22;3765;47.962;7.952;2022-12-17T10:32:40;-3274.20;75.50
7447;DHT22;3765;47.962;7.952;2022-12-17T10:35:34;-3274.30;75.50
7447;DHT22;3765;47.962;7.952;2022-12-17T10:38:21;-3274.20;75.20
7447;DHT22;3765;47.962;7.952;2022-12-17T10:41:19;-3274.10;75.90
7447;DHT22;3765;47.962;7.952;2022-12-17T10:44:19;-3274.30;75.70
7447;DHT22;3765;47.962;7.952;2022-12-17T10:47:11;-3274.30;75.80
7447;DHT22;3765;47.962;7.952;2022-12-17T10:50:00;-3274.40;76.00
7447;DHT22;3765;47.962;7.952;2022-12-17T10:52:48;-3274.60;76.10
7447;DHT22;3765;47.962;7.952;2022-12-17T10:55:34;-3274.50;75.80
7447;DHT22;3765;47.962;7.952;2022-12-17T10:58:22;-3274.70;76.30
7447;DHT22;3765;47.962;7.952;2022-12-17T11:01:11;-3274.30;75.40
7447;DHT22;3765;47.962;7.952;2022-12-17T11:04:02;-3274.30;76.50
7447;DHT22;3765;47.962;7.952;2022-12-17T11:06:52;-3274.20;76.40
7447;DHT22;3765;47.962;7.952;2022-12-17T11:09:42;-3273.70;76.70
7447;DHT22;3765;47.962;7.952;2022-12-17T11:12:38;-3274.00;77.10
7447;DHT22;3765;47.962;7.952;2022-12-17T11:15:31;-3274.00;77.30
7447;DHT22;3765;47.962;7.952;2022-12-17T11:18:21;-3274.20;77.40
7447;DHT22;3765;47.962;7.952;2022-12-17T11:21:09;-3274.60;77.40
7447;DHT22;3765;47.962;7.952;2022-12-17T11:23:59;-3274.60;77.00
7447;DHT22;3765;47.962;7.952;2022-12-17T11:26:50;-3274.40;76.90
7447;DHT22;3765;47.962;7.952;2022-12-17T11:29:38;-3274.50;77.20
7447;DHT22;3765;47.962;7.952;2022-12-17T11:32:40;-3274.40;77.20
7447;DHT22;3765;47.962;7.952;2022-12-17T11:35:36;-3274.90;77.50
7447;DHT22;3765;47.962;7.952;2022-12-17T11:38:33;-3275.10;77.00
7447;DHT22;3765;47.962;7.952;2022-12-17T11:41:30;-3275.40;76.80
7447;DHT22;3765;47.962;7.952;2022-12-17T11:44:27;-3275.50;76.70
7447;DHT22;3765;47.962;7.952;2022-12-17T11:47:27;-3275.40;76.10
7447;DHT22;3765;47.962;7.952;2022-12-17T11:50:21;-3275.20;76.40
7447;DHT22;3765;47.962;7.952;2022-12-17T11:53:25;-3275.40;76.70
7447;DHT22;3765;47.962;7.952;2022-12-17T11:56:18;-3275.60;76.30
7447;DHT22;3765;47.962;7.952;2022-12-17T11:59:15;-3275.20;76.20
7447;DHT22;3765;47.962;7.952;2022-12-17T12:02:17;-3275.60;76.60
7447;DHT22;3765;47.962;7.952;2022-12-17T12:05:14;-3275.60;75.80
7447;DHT22;3765;47.962;7.952;2022-12-17T12:08:06;-3275.50;76.20
7447;DHT22;3765;47.962;7.952;2022-12-17T12:10:58;-3275.70;75.80
7447;DHT22;3765;47.962;7.952;2022-12-17T12:13:53;-3275.30;75.70
7447;DHT22;3765;47.962;7.952;2022-12-17T12:16:58;-3275.40;76.30
7447;DHT22;3765;47.962;7.952;2022-12-17T12:19:57;-3275.70;76.30
7447;DHT22;3765;47.962;7.952;2022-12-17T12:22:53;-3275.70;75.90
7447;DHT22;3765;47.962;7.952;2022-12-17T12:25:49;-3275.80;76.00
7447;DHT22;3765;47.962;7.952;2022-12-17T12:28:42;-3276.00;75.50
7447;DHT22;3765;47.962;7.952;2022-12-17T12:31:34;-3275.70;75.30
7447;DHT22;3765;47.962;7.952;2022-12-17T12:34:24;-3275.60;75.70
7447;DHT22;3765;47.962;7.952;2022-12-17T12:37:13;-3275.60;75.30
7447;DHT22;3765;47.962;7.952;2022-12-17T12:40:06;-3275.10;75.60
7447;DHT22;3765;47.962;7.952;2022-12-17T12:42:56;-3275.00;75.60
7447;DHT22;3765;47.962;7.952;2022-12-17T12:45:51;-3275.10;76.40
7447;DHT22;3765;47.962;7.952;2022-12-17T12:48:42;-3274.90;75.90
7447;DHT22;3765;47.962;7.952;2022-12-17T12:51:34;-3275.10;76.40
7447;DHT22;3765;47.962;7.952;2022-12-17T12:54:26;-3275.00;75.90
7447;DHT22;3765;47.962;7.952;2022-12-17T12:57:30;-3274.90;76.30
7447;DHT22;3765;47.962;7.952;2022-12-17T13:00:37;-3274.50;76.30
7447;DHT22;3765;47.962;7.952;2022-12-17T13:03:26;-3274.30;76.70
7447;DHT22;3765;47.962;7.952;2022-12-17T13:06:14;-3274.50;76.90
7447;DHT22;3765;47.962;7.952;2022-12-17T13:09:16;-3274.50;76.80
7447;DHT22;3765;47.962;7.952;2022-12-17T13:11:48;-3274.60;77.00
7447;DHT22;3765;47.962;7.952;2022-12-17T13:14:18;-3274.80;77.10
7447;DHT22;3765;47.962;7.952;2022-12-17T13:16:53;-3274.60;76.40
7447;DHT22;3765;47.962;7.952;2022-12-17T13:19:35;-3274.40;76.80
7447;DHT22;3765;47.962;7.952;2022-12-17T13:22:25;-3274.40;77.20
7447;DHT22;3765;47.962;7.952;2022-12-17T13:25:08;-3274.50;77.10
7447;DHT22;3765;47.962;7.952;2022-12-17T13:27:38;-3274.50;76.90
7447;DHT22;3765;47.962;7.952;2022-12-17T13:30:19;-3274.50;77.20
7447;DHT22;3765;47.962;7.952;2022-12-17T13:32:57;-3274.60;77.20
7447;DHT22;3765;47.962;7.952;2022-12-17T13:35:37;-3274.80;77.40
7447;DHT22;3765;47.962;7.952;2022-12-17T13:38:12;-3274.70;77.20
7447;DHT22;3765;47.962;7.952;2022-12-17T13:40:56;-3274.80;77.30
7447;DHT22;3765;47.962;7.952;2022-12-17T13:43:39;-3274.80;77.10
7447;DHT22;3765;47.962;7.952;2022-12-17T13:46:21;-3274.60;77.10
7447;DHT22;3765;47.962;7.952;2022-12-17T13:48:55;-3274.50;77.40
7447;DHT22;3765;47.962;7.952;2022-12-17T13:51:27;-3274.50;77.50
7447;DHT22;3765;47.962;7.952;2022-12-17T13:53:57;-3274.60;77.80
7447;DHT22;3765;47.962;7.952;2022-12-17T13:56:30;-3274.80;77.80
7447;DHT22;3765;47.962;7.952;2022-12-17T13:59:01;-3275.00;77.60
7447;DHT22;3765;47.962;7.952;2022-12-17T14:01:43;-3274.80;77.10
7447;DHT22;3765;47.962;7.952;2022-12-17T14:04:20;-3274.70;77.30
7447;DHT22;3765;47.962;7.952;2022-12-17T14:06:50;-3274.80;77.70
7447;DHT22;3765;47.962;7.952;2022-12-17T14:09:22;-3274.70;77.10
7447;DHT22;3765;47.962;7.952;2022-12-17T14:11:56;-3274.70;77.50
7447;DHT22;3765;47.962;7.952;2022-12-17T14:14:46;-3274.80;77.60
7447;DHT22;3765;47.962;7.952;2022-12-17T14:17:18;-3274.80;77.60
7447;DHT22;3765;47.962;7.952;2022-12-17T14:19:55;-3274.70;77.30
7447;DHT22;3765;47.962;7.952;2022-12-17T14:22:31;-3274.50;77.30
7447;DHT22;3765;47.962;7.952;2022-12-17T14:25:04;-3274.40;77.50
7447;DHT22;3765;47.962;7.952;2022-12-17T14:27:36;-3274.30;77.80
7447;DHT22;3765;47.962;7.952;2022-12-17T14:30:21;-3274.40;77.80
7447;DHT22;3765;47.962;7.952;2022-12-17T14:32:51;-3274.40;77.90
7447;DHT22;3765;47.962;7.952;2022-12-17T14:35:26;-3274.60;78.10
7447;DHT22;3765;47.962;7.952;2022-12-17T14:37:56;-3274.50;77.60
7447;DHT22;3765;47.962;7.952;2022-12-17T14:40:26;-3274.50;77.90
7447;DHT22;3765;47.962;7.952;2022-12-17T14:42:59;-3274.60;78.20
7447;DHT22;3765;47.962;7.952;2022-12-17T14:45:30;-3274.70;78.20
7447;DHT22;3765;47.962;7.952;2022-12-17T14:48:00;-3274.70;78.10
7447;DHT22;3765;47.962;7.952;2022-12-17T14:50:37;-3274.70;78.00
7447;DHT22;3765;47.962;7.952;2022-12-17T14:53:22;-3274.70;77.90
7447;DHT22;3765;47.962;7.952;2022-12-17T14:55:54;-3274.80;78.10
7447;DHT22;3765;47.962;7.952;2022-12-17T14:58:26;-3274.80;78.10
7447;DHT22;3765;47.962;7.952;2022-12-17T15:01:03;-3274.90;78.10
7447;DHT22;3765;47.962;7.952;2022-12-17T15:03:39;-3274.80;77.90
7447;DHT22;3765;47.962;7.952;2022-12-17T15:06:23;-3275.00;78.10
7447;DHT22;3765;47.962;7.952;2022-12-17T15:08:57;-3274.70;77.70
7447;DHT22;3765;47.962;7.952;2022-12-17T15:11:27;-3274.50;77.80
7447;DHT22;3765;47.962;7.952;2022-12-17T15:13:59;-3274.50;78.10
7447;DHT22;3765;47.962;7.952;2022-12-17T15:16:29;-3274.70;78.30
7447;DHT22;3765;47.962;7.952;2022-12-17T15:18:59;-3274.70;78.10
7447;DHT22;3765;47.962;7.952;2022-12-17T15:21:29;-3274.80;78.20
7447;DHT22;3765;47.962;7.952;2022-12-17T15:23:59;-3274.60;77.90
7447;DHT22;3765;47.962;7.952;2022-12-17T15:26:30;-3274.50;78.10
7447;DHT22;3765;47.962;7.952;2022-12-17T15:29:01;-3274.40;78.10
7447;DHT22;3765;47.962;7.952;2022-12-17T15:31:32;-3274.30;78.10
7447;DHT22;3765;47.962;7.952;2022-12-17T15:34:02;-3274.40;78.20
7447;DHT22;3765;47.962;7.952;2022-12-17T15:36:32;-3274.30;78.20
7447;DHT22;3765;47.962;7.952;2022-12-17T15:39:02;-3274.40;78.40
7447;DHT22;3765;47.962;7.952;2022-12-17T15:41:32;-3274.40;78.30
7447;DHT22;3765;47.962;7.952;2022-12-17T15:44:19;-3274.30;78.10
7447;DHT22;3765;47.962;7.952;2022-12-17T15:46:47;-3274.30;78.50
7447;DHT22;3765;47.962;7.952;2022-12-17T15:49:15;-3274.50;78.50
7447;DHT22;3765;47.962;7.952;2022-12-17T15:51:43;-3274.50;78.40
7447;DHT22;3765;47.962;7.952;2022-12-17T15:54:11;-3274.50;78.40
7447;DHT22;3765;47.962;7.952;2022-12-17T15:56:40;-3274.50;78.30
7447;DHT22;3765;47.962;7.952;2022-12-17T15:59:08;-3274.50;78.30
7447;DHT22;3765;47.962;7.952;2022-12-17T16:01:37;-3274.40;78.40
7447;DHT22;3765;47.962;7.952;2022-12-17T16:04:06;-3274.50;78.60
7447;DHT22;3765;47.962;7.952;2022-12-17T16:06:43;-3274.60;78.50
7447;DHT22;3765;47.962;7.952;2022-12-17T16:09:11;-3274.50;78.30
7447;DHT22;3765;47.962;7.952;2022-12-17T16:11:40;-3274.50;78.40
7447;DHT22;3765;47.962;7.952;2022-12-17T16:14:08;-3274.40;78.20
7447;DHT22;3765;47.962;7.952;2022-12-17T16:16:37;-3274.30;78.50
7447;DHT22;3765;47.962;7.952;2022-12-17T16:19:06;-3274.40;78.60
7447;DHT22;3765;47.962;7.952;2022-12-17T16:21:34;-3274.40;78.70
7447;DHT22;3765;47.962;7.952;2022-12-17T16:24:06;-3274.50;78.60
7447;DHT22;3765;47.962;7.952;2022-12-17T16:26:36;-3274.40;78.40
7447;DHT22;3765;47.962;7.952;2022-12-17T16:29:04;-3274.40;78.50
7447;DHT22;3765;47.962;7.952;2022-12-17T16:31:33;-3274.40;78.70
7447;DHT22;3765;47.962;7.952;2022-12-17T16:34:06;-3274.40;78.50
7447;DHT22;3765;47.962;7.952;2022-12-17T16:36:35;-3274.40;78.60
7447;DHT22;3765;47.962;7.952;2022-12-17T16:39:05;-3274.40;78.60
7447;DHT22;3765;47.962;7.952;2022-12-17T16:41:33;-3274.40;78.60
7447;DHT22;3765;47.962;7.952;2022-12-17T16:44:02;-3274.30;78.50
7447;DHT22;3765;47.962;7.952;2022-12-17T16:46:33;-3274.20;78.70
7447;DHT22;3765;47.962;7.952;2022-12-17T16:49:05;-3274.30;78.80
7447;DHT22;3765;47.962;7.952;2022-12-17T16:51:34;-3274.50;78.90
7447;DHT22;3765;47.962;7.952;2022-12-17T16:54:04;-3274.50;78.70
7447;DHT22;3765;47.962;7.952;2022-12-17T16:56:33;-3274.50;78.60
7447;DHT22;3765;47.962;7.952;2022-12-17T16:59:06;-3274.40;78.50
7447;DHT22;3765;47.962;7.952;2022-12-17T17:01:35;-3274.40;78.60
7447;DHT22;3765;47.962;7.952;2022-12-17T17:04:07;-3274.40;78.50